createdAt,value
2018-07-12T00:01:21.160Z,426.17
2018-07-12T00:03:49.408Z,281.50
2018-07-12T00:06:17.514Z,160.13
2018-07-12T00:08:45.818Z,129.60
2018-07-12T00:11:13.920Z,247.43
2018-07-12T00:13:48.469Z,268.53
2018-07-12T00:16:16.828Z,408.77
2018-07-12T00:18:44.945Z,315.47
2018-07-12T00:21:13.477Z,223.10
2018-07-12T00:23:41.767Z,130.67
2018-07-12T00:26:09.970Z,142.90
2018-07-12T00:28:38.052Z,127.37
2018-07-12T00:31:06.315Z,142.97
2018-07-12T00:33:34.540Z,139.13
2018-07-12T00:36:03.597Z,223.10
2018-07-12T00:38:31.796Z,186.67
2018-07-12T00:40:59.901Z,180.57
2018-07-12T00:43:28.051Z,176.93
2018-07-12T00:45:56.182Z,151.03
2018-07-12T00:48:24.279Z,123.93
2018-07-12T00:50:52.395Z,146.17
2018-07-12T00:53:20.492Z,172.90
2018-07-12T00:55:48.599Z,149.20
2018-07-12T00:58:16.714Z,180.87
2018-07-12T01:00:44.831Z,241.63
2018-07-12T01:03:12.911Z,131.03
2018-07-12T01:05:41.041Z,167.07
2018-07-12T01:08:09.251Z,307.90
2018-07-12T01:10:37.366Z,441.30
2018-07-12T01:13:05.521Z,239.70
2018-07-12T01:15:33.626Z,207.43
2018-07-12T01:18:01.764Z,139.37
2018-07-12T01:20:29.892Z,133.13
2018-07-12T01:22:58.082Z,150.23
2018-07-12T01:25:26.236Z,168.73
2018-07-12T01:27:54.329Z,165.50
2018-07-12T01:30:22.468Z,149.67
2018-07-12T01:32:50.588Z,136.20
2018-07-12T01:35:18.675Z,130.90
2018-07-12T01:37:46.797Z,134.27
2018-07-12T01:40:14.881Z,131.70
2018-07-12T01:42:42.972Z,138.87
2018-07-12T01:45:11.485Z,135.17
2018-07-12T01:47:39.582Z,113.33
2018-07-12T01:50:07.701Z,118.63
2018-07-12T01:52:35.842Z,94.50
2018-07-12T01:55:03.964Z,92.80
2018-07-12T01:57:32.054Z,79.50
2018-07-12T02:00:00.189Z,78.67
2018-07-12T02:02:28.267Z,71.97
2018-07-12T02:04:56.395Z,71.63
2018-07-12T02:07:24.547Z,63.73
2018-07-12T02:09:52.644Z,60.07
2018-07-12T02:12:20.765Z,51.10
2018-07-12T02:14:48.866Z,47.90
2018-07-12T02:17:17.093Z,52.47
2018-07-12T02:19:45.268Z,53.67
2018-07-12T02:22:13.421Z,63.53
2018-07-12T02:24:41.540Z,61.17
2018-07-12T02:27:09.738Z,70.40
2018-07-12T02:29:37.961Z,65.13
2018-07-12T02:32:06.167Z,57.17
2018-07-12T02:34:34.363Z,65.63
2018-07-12T02:37:02.485Z,69.53
2018-07-12T02:39:30.594Z,64.97
2018-07-12T02:41:58.708Z,74.77
2018-07-12T02:44:26.915Z,66.00
2018-07-12T02:46:55.013Z,72.60
2018-07-12T02:49:23.146Z,76.43
2018-07-12T02:51:51.233Z,79.13
2018-07-12T02:54:20.458Z,77.57
2018-07-12T02:56:49.336Z,74.13
2018-07-12T02:59:17.470Z,75.40
2018-07-12T03:01:45.562Z,73.13
2018-07-12T03:04:13.750Z,74.17
2018-07-12T03:06:41.895Z,78.70
2018-07-12T03:09:09.983Z,75.40
2018-07-12T03:11:38.079Z,64.10
2018-07-12T03:14:06.449Z,67.77
2018-07-12T03:16:34.589Z,68.43
2018-07-12T03:19:02.755Z,67.37
2018-07-12T03:21:30.844Z,61.53
2018-07-12T03:23:58.931Z,60.23
2018-07-12T03:26:27.032Z,75.13
2018-07-12T03:28:55.145Z,57.37
2018-07-12T03:31:23.237Z,60.10
2018-07-12T03:33:51.380Z,57.63
2018-07-12T03:36:19.497Z,49.93
2018-07-12T03:38:47.787Z,52.23
2018-07-12T03:41:15.871Z,51.83
2018-07-12T03:43:43.987Z,44.37
2018-07-12T03:46:12.075Z,53.50
2018-07-12T03:48:40.249Z,52.03
2018-07-12T03:51:08.540Z,44.77
2018-07-12T03:53:36.653Z,45.90
2018-07-12T03:56:04.817Z,40.50
2018-07-12T03:58:32.925Z,46.67
2018-07-12T04:01:01.040Z,43.43
2018-07-12T04:03:29.265Z,46.47
2018-07-12T04:05:57.382Z,44.03
2018-07-12T04:08:25.467Z,44.23
2018-07-12T04:10:53.600Z,41.30
2018-07-12T04:13:21.696Z,49.20
2018-07-12T04:15:49.775Z,44.23
2018-07-12T04:18:17.879Z,42.60
2018-07-12T04:20:45.963Z,37.23
2018-07-12T04:23:14.059Z,36.93
2018-07-12T04:25:42.325Z,44.20
2018-07-12T04:28:10.435Z,41.50
2018-07-12T04:30:38.547Z,44.23
2018-07-12T04:33:06.649Z,46.47
2018-07-12T04:35:34.819Z,46.43
2018-07-12T04:38:02.952Z,53.73
2018-07-12T04:40:31.064Z,54.97
2018-07-12T04:42:59.174Z,49.10
2018-07-12T04:45:27.271Z,53.80
2018-07-12T04:47:55.635Z,60.63
2018-07-12T04:50:23.617Z,52.50
2018-07-12T04:52:51.731Z,43.33
2018-07-12T04:55:19.812Z,47.83
2018-07-12T04:57:48.004Z,44.07
2018-07-12T05:00:16.114Z,42.37
2018-07-12T05:02:44.244Z,45.67
2018-07-12T05:05:12.625Z,39.60
2018-07-12T05:07:40.615Z,46.50
2018-07-12T05:10:08.730Z,50.83
2018-07-12T05:12:37.120Z,56.67
2018-07-12T05:15:05.242Z,57.17
2018-07-12T05:17:33.359Z,60.93
2018-07-12T05:20:01.426Z,65.03
2018-07-12T05:22:29.648Z,61.93
2018-07-12T05:24:57.752Z,55.40
2018-07-12T05:27:25.842Z,59.73
2018-07-12T05:29:53.946Z,67.23
2018-07-12T05:32:22.129Z,58.87
2018-07-12T05:34:50.216Z,52.10
2018-07-12T05:37:19.597Z,53.40
2018-07-12T05:39:48.941Z,47.63
2018-07-12T05:42:18.220Z,46.50
2018-07-12T05:44:47.530Z,43.60
2018-07-12T05:47:16.901Z,40.70
2018-07-12T05:49:46.254Z,40.97
2018-07-12T05:52:15.264Z,41.40
2018-07-12T05:54:44.433Z,35.23
2018-07-12T05:57:13.774Z,46.57
2018-07-12T05:59:43.072Z,47.20
2018-07-12T06:02:18.966Z,40.50
2018-07-12T06:04:48.871Z,36.97
2018-07-12T06:07:23.790Z,41.47
2018-07-12T06:09:53.266Z,33.07
2018-07-12T06:12:22.631Z,24.97
2018-07-12T06:14:52.019Z,34.13
2018-07-12T06:17:21.330Z,33.37
2018-07-12T06:19:50.891Z,33.40
2018-07-12T06:22:20.235Z,36.37
2018-07-12T06:24:49.671Z,30.80
2018-07-12T06:27:18.965Z,31.33
2018-07-12T06:29:48.317Z,29.13
2018-07-12T06:32:17.662Z,33.60
2018-07-12T06:34:46.951Z,27.53
2018-07-12T06:37:16.596Z,21.60
2018-07-12T06:39:45.725Z,24.07
2018-07-12T06:42:15.091Z,29.27
2018-07-12T06:44:44.395Z,22.67
2018-07-12T06:47:13.820Z,20.23
2018-07-12T06:49:43.109Z,18.47
2018-07-12T06:52:12.421Z,21.90
2018-07-12T06:54:41.738Z,22.33
2018-07-12T06:57:11.149Z,23.10
2018-07-12T06:59:40.472Z,23.43
2018-07-12T07:02:09.960Z,20.00
2018-07-12T07:04:39.337Z,17.20
2018-07-12T07:07:08.749Z,19.80
2018-07-12T07:09:38.265Z,22.17
2018-07-12T07:12:07.852Z,19.00
2018-07-12T07:14:37.268Z,19.83
2018-07-12T07:17:06.640Z,18.30
2018-07-12T07:19:35.962Z,18.10
2018-07-12T07:22:05.308Z,16.73
2018-07-12T07:24:34.623Z,16.50
2018-07-12T07:27:04.483Z,14.93
2018-07-12T07:29:33.813Z,15.27
2018-07-12T07:32:03.146Z,19.60
2018-07-12T07:34:32.440Z,17.23
2018-07-12T07:37:01.825Z,20.77
2018-07-12T07:39:31.266Z,21.03
2018-07-12T07:42:00.598Z,18.50
2018-07-12T07:44:29.979Z,14.03
2018-07-12T07:46:59.316Z,15.13
2018-07-12T07:49:28.653Z,18.40
2018-07-12T07:51:57.988Z,15.37
2018-07-12T07:54:27.311Z,14.07
2018-07-12T07:56:56.693Z,12.90
2018-07-12T07:59:27.217Z,12.13
2018-07-12T08:01:56.715Z,12.53
2018-07-12T08:04:26.173Z,20.70
2018-07-12T08:06:56.023Z,11.60
2018-07-12T08:09:25.946Z,12.40
2018-07-12T08:11:55.505Z,22.70
2018-07-12T08:14:25.990Z,15.80
2018-07-12T08:16:55.330Z,10.97
2018-07-12T08:19:25.712Z,10.70
2018-07-12T08:22:04.848Z,8.87
2018-07-12T08:24:35.653Z,8.30
2018-07-12T08:27:05.833Z,7.70
2018-07-12T08:29:35.315Z,7.60
2018-07-12T08:32:05.136Z,9.20
2018-07-12T08:34:34.489Z,6.90
2018-07-12T08:37:03.930Z,5.73
2018-07-12T08:39:33.298Z,4.80
2018-07-12T08:42:02.746Z,9.30
2018-07-12T08:44:32.398Z,4.83
2018-07-12T08:47:01.707Z,6.10
2018-07-12T08:49:31.153Z,5.83
2018-07-12T08:52:01.068Z,5.90
2018-07-12T08:54:30.823Z,5.03
2018-07-12T08:57:00.011Z,3.80
2018-07-12T08:59:30.370Z,4.13
2018-07-12T09:01:59.751Z,4.17
2018-07-12T09:04:29.096Z,5.67
2018-07-12T09:06:58.446Z,4.00
2018-07-12T09:09:27.886Z,4.77
2018-07-12T09:11:57.261Z,4.20
2018-07-12T09:14:26.687Z,4.00
2018-07-12T09:16:56.641Z,3.30
2018-07-12T09:19:26.041Z,3.20
2018-07-12T09:21:55.337Z,2.90
2018-07-12T09:24:24.682Z,4.30
2018-07-12T09:26:54.132Z,5.73
2018-07-12T09:29:23.416Z,9.10
2018-07-12T09:31:52.721Z,4.47
2018-07-12T09:34:24.820Z,6.30
2018-07-12T09:36:55.474Z,5.17
2018-07-12T09:39:25.734Z,4.87
2018-07-12T09:41:55.443Z,3.83
2018-07-12T09:44:24.756Z,4.23
2018-07-12T09:46:54.148Z,7.47
2018-07-12T09:49:23.831Z,5.20
2018-07-12T09:51:53.008Z,5.00
2018-07-12T09:54:22.339Z,7.77
2018-07-12T09:57:03.124Z,4.77
2018-07-12T09:59:32.565Z,4.47
2018-07-12T10:02:07.373Z,5.90
2018-07-12T10:04:36.743Z,7.53
2018-07-12T10:07:11.806Z,5.20
2018-07-12T10:09:46.368Z,5.37
2018-07-12T10:12:21.252Z,5.23
2018-07-12T10:14:55.739Z,5.17
2018-07-12T10:17:30.700Z,5.40
2018-07-12T10:20:00.243Z,8.93
2018-07-12T10:22:29.743Z,5.00
2018-07-12T10:24:59.230Z,6.73
2018-07-12T10:27:29.027Z,4.90
2018-07-12T10:29:58.638Z,12.00
2018-07-12T10:32:28.068Z,6.00
2018-07-12T10:34:57.504Z,5.93
2018-07-12T10:37:26.817Z,7.20
2018-07-12T10:39:56.186Z,6.20
2018-07-12T10:42:25.137Z,7.47
2018-07-12T10:44:54.380Z,5.63
2018-07-12T10:47:23.372Z,7.13
2018-07-12T10:49:52.582Z,5.30
2018-07-12T10:52:21.917Z,6.80
2018-07-12T10:54:53.232Z,7.63
2018-07-12T10:57:22.741Z,7.23
2018-07-12T10:59:52.274Z,14.93
2018-07-12T11:02:21.789Z,6.00
2018-07-12T11:04:51.274Z,6.50
2018-07-12T11:07:20.701Z,14.73
2018-07-12T11:09:50.140Z,5.40
2018-07-12T11:12:19.647Z,7.80
2018-07-12T11:14:49.089Z,6.30
2018-07-12T11:17:18.545Z,6.63
2018-07-12T11:19:47.887Z,5.90
2018-07-12T11:22:17.301Z,7.30
2018-07-12T11:24:46.826Z,12.63
2018-07-12T11:27:16.250Z,6.97
2018-07-12T11:29:53.452Z,6.13
2018-07-12T11:32:22.634Z,5.60
2018-07-12T11:34:52.250Z,5.00
2018-07-12T11:37:27.021Z,5.47
2018-07-12T11:39:56.295Z,5.67
2018-07-12T11:42:25.600Z,5.70
2018-07-12T11:44:55.195Z,12.17
2018-07-12T11:47:24.553Z,6.27
2018-07-12T11:49:54.163Z,7.20
2018-07-12T11:52:23.508Z,5.50
2018-07-12T11:54:53.167Z,5.70
2018-07-12T11:57:23.684Z,8.93
2018-07-12T11:59:53.304Z,7.63
2018-07-12T12:02:25.027Z,7.20
2018-07-12T12:04:54.579Z,6.60
2018-07-12T12:07:24.076Z,7.03
2018-07-12T12:09:53.594Z,7.23
2018-07-12T12:12:23.124Z,6.50
2018-07-12T12:14:52.196Z,8.90
2018-07-12T12:17:21.605Z,5.43
2018-07-12T12:19:51.185Z,10.10
2018-07-12T12:22:20.810Z,6.83
2018-07-12T12:24:51.215Z,6.87
2018-07-12T12:27:21.063Z,5.30
2018-07-12T12:29:51.561Z,7.93
2018-07-12T12:32:22.069Z,7.10
2018-07-12T12:34:51.672Z,7.13
2018-07-12T12:37:22.043Z,4.97
2018-07-12T12:39:52.492Z,5.97
2018-07-12T12:42:22.271Z,5.03
2018-07-12T12:44:51.629Z,4.70
2018-07-12T12:47:20.992Z,8.67
2018-07-12T12:49:50.553Z,5.27
2018-07-12T12:52:19.852Z,7.03
2018-07-12T12:54:49.343Z,5.40
2018-07-12T12:57:19.888Z,5.83
2018-07-12T12:59:49.381Z,5.13
2018-07-12T13:02:19.521Z,6.00
2018-07-12T13:04:50.554Z,5.33
2018-07-12T13:07:24.525Z,8.20
2018-07-12T13:09:57.057Z,5.60
2018-07-12T13:12:27.790Z,5.20
2018-07-12T13:14:59.931Z,7.10
2018-07-12T13:17:32.037Z,5.80
2018-07-12T13:20:05.465Z,6.77
2018-07-12T13:22:36.011Z,5.20
2018-07-12T13:25:07.546Z,4.70
2018-07-12T13:27:38.818Z,5.90
2018-07-12T13:30:10.596Z,3.83
2018-07-12T13:32:40.843Z,4.50
2018-07-12T13:35:13.287Z,4.53
2018-07-12T13:37:49.587Z,4.13
2018-07-12T13:40:23.232Z,4.37
2018-07-12T13:42:56.117Z,6.30
2018-07-12T13:45:28.928Z,4.60
2018-07-12T13:48:00.152Z,4.93
2018-07-12T13:50:32.392Z,7.80
2018-07-12T13:53:06.243Z,7.53
2018-07-12T13:55:38.023Z,4.77
2018-07-12T13:58:09.719Z,8.70
2018-07-12T14:00:39.634Z,11.60
2018-07-12T14:03:10.870Z,4.00
2018-07-12T14:05:44.673Z,9.40
2018-07-12T14:08:21.976Z,4.30
2018-07-12T14:10:53.776Z,4.70
2018-07-12T14:13:24.852Z,5.10
2018-07-12T14:15:55.946Z,5.03
2018-07-12T14:18:27.273Z,4.60
2018-07-12T14:20:57.358Z,6.13
2018-07-12T14:23:32.029Z,6.30
2018-07-12T14:26:03.640Z,5.37
2018-07-12T14:28:36.322Z,4.43
2018-07-12T14:31:08.816Z,4.50
2018-07-12T14:33:40.413Z,3.93
2018-07-12T14:36:11.094Z,7.80
2018-07-12T14:38:42.591Z,4.53
2018-07-12T14:41:16.359Z,5.40
2018-07-12T14:43:46.855Z,7.70
2018-07-12T14:46:18.294Z,6.90
2018-07-12T14:48:52.271Z,5.20
2018-07-12T14:51:23.888Z,4.03
2018-07-12T14:53:55.467Z,5.50
2018-07-12T14:56:27.853Z,6.20
2018-07-12T14:59:02.519Z,4.10
2018-07-12T15:01:34.749Z,4.60
2018-07-12T15:04:06.371Z,4.70
2018-07-12T15:06:40.645Z,4.07
2018-07-12T15:09:11.888Z,6.97
2018-07-12T15:11:43.858Z,5.40
2018-07-12T15:14:15.229Z,4.93
2018-07-12T15:16:48.234Z,5.00
2018-07-12T15:19:23.619Z,3.77
2018-07-12T15:21:53.435Z,6.00
2018-07-12T15:24:22.863Z,6.07
2018-07-12T15:26:53.096Z,7.50
2018-07-12T15:29:22.481Z,8.73
2018-07-12T15:31:51.822Z,4.30
2018-07-12T15:34:21.264Z,4.10
2018-07-12T15:36:50.637Z,7.20
2018-07-12T15:39:20.133Z,4.20
2018-07-12T15:41:50.203Z,7.67
2018-07-12T15:44:19.662Z,6.63
2018-07-12T15:46:49.090Z,4.60
2018-07-12T15:49:18.523Z,5.00
2018-07-12T15:51:47.998Z,7.93
2018-07-12T15:54:17.317Z,4.60
2018-07-12T15:56:47.403Z,5.10
2018-07-12T15:59:17.824Z,10.30
2018-07-12T16:01:47.274Z,5.57
2018-07-12T16:04:16.619Z,5.03
2018-07-12T16:06:46.543Z,4.37
2018-07-12T16:09:16.274Z,4.80
2018-07-12T16:11:45.637Z,6.20
2018-07-12T16:14:14.989Z,5.57
2018-07-12T16:16:44.440Z,10.83
2018-07-12T16:19:13.957Z,7.97
2018-07-12T16:21:43.358Z,20.37
2018-07-12T16:24:12.699Z,8.50
2018-07-12T16:26:42.423Z,6.33
2018-07-12T16:29:12.397Z,11.13
2018-07-12T16:31:41.747Z,10.03
2018-07-12T16:34:11.133Z,8.60
2018-07-12T16:36:41.561Z,5.87
2018-07-12T16:39:10.873Z,7.10
2018-07-12T16:41:41.091Z,7.50
2018-07-12T16:44:10.529Z,12.00
2018-07-12T16:46:39.888Z,7.53
2018-07-12T16:49:10.195Z,11.47
2018-07-12T16:51:39.660Z,13.93
2018-07-12T16:54:08.969Z,8.27
2018-07-12T16:56:38.379Z,13.43
2018-07-12T16:59:07.671Z,13.20
2018-07-12T17:01:37.083Z,13.30
2018-07-12T17:04:06.520Z,11.33
2018-07-12T17:06:35.941Z,24.40
2018-07-12T17:09:06.870Z,16.70
2018-07-12T17:11:36.310Z,17.03
2018-07-12T17:14:05.349Z,19.77
2018-07-12T17:17:05.442Z,18.83
2018-07-12T17:19:34.872Z,27.83
2018-07-12T17:22:04.256Z,27.77
2018-07-12T17:24:33.704Z,23.67
2018-07-12T17:27:04.113Z,26.57
2018-07-12T17:29:33.495Z,23.97
2018-07-12T17:32:02.830Z,24.53
2018-07-12T17:34:32.319Z,30.73
2018-07-12T17:37:02.011Z,22.50
2018-07-12T17:39:31.338Z,28.07
2018-07-12T17:42:01.048Z,25.80
2018-07-12T17:44:30.516Z,26.90
2018-07-12T17:47:00.132Z,29.50
2018-07-12T17:49:29.478Z,27.60
2018-07-12T17:51:58.903Z,32.90
2018-07-12T17:54:28.210Z,36.97
2018-07-12T17:56:57.654Z,26.40
2018-07-12T17:59:27.033Z,28.70
2018-07-12T18:01:56.424Z,31.63
2018-07-12T18:04:25.772Z,29.40
2018-07-12T18:06:55.135Z,28.57
2018-07-12T18:09:24.503Z,24.17
2018-07-12T18:11:54.391Z,26.83
2018-07-12T18:14:23.772Z,29.53
2018-07-12T18:16:53.222Z,24.43
2018-07-12T18:19:22.624Z,34.00
2018-07-12T18:21:51.643Z,33.57
2018-07-12T18:24:20.967Z,31.57
2018-07-12T18:26:50.315Z,38.83
2018-07-12T18:29:19.676Z,30.30
2018-07-12T18:31:49.024Z,32.60
2018-07-12T18:34:18.378Z,39.57
2018-07-12T18:36:47.852Z,35.87
2018-07-12T18:39:18.193Z,49.30
2018-07-12T18:41:47.537Z,35.80
2018-07-12T18:44:17.055Z,37.67
2018-07-12T18:46:46.383Z,47.33
2018-07-12T18:49:15.720Z,38.00
2018-07-12T18:51:45.054Z,40.20
2018-07-12T18:54:14.518Z,35.27
2018-07-12T18:56:43.833Z,43.97
2018-07-12T18:59:13.278Z,32.77
2018-07-12T19:01:42.722Z,41.27
2018-07-12T19:04:12.090Z,41.80
2018-07-12T19:06:41.676Z,49.10
2018-07-12T19:09:11.682Z,39.53
2018-07-12T19:11:41.095Z,40.50
2018-07-12T19:14:10.115Z,48.20
2018-07-12T19:16:39.431Z,47.60
2018-07-12T19:19:08.838Z,45.27
2018-07-12T19:21:38.277Z,48.27
2018-07-12T19:24:07.758Z,53.23
2018-07-12T19:26:37.069Z,48.80
2018-07-12T19:29:06.730Z,46.70
2018-07-12T19:31:36.137Z,56.20
2018-07-12T19:34:05.520Z,54.93
2018-07-12T19:36:34.584Z,51.00
2018-07-12T19:39:05.157Z,48.03
2018-07-12T19:41:34.697Z,48.33
2018-07-12T19:44:04.024Z,48.70
2018-07-12T19:46:33.448Z,46.67
2018-07-12T19:49:02.881Z,57.83
2018-07-12T19:51:32.359Z,55.10
2018-07-12T19:54:01.936Z,45.00
2018-07-12T19:56:31.264Z,57.90
2018-07-12T19:59:00.625Z,54.43
2018-07-12T20:01:29.701Z,53.60
2018-07-12T20:03:58.815Z,49.80
2018-07-12T20:06:27.942Z,51.33
2018-07-12T20:08:57.043Z,43.20
2018-07-12T20:11:26.316Z,46.80
2018-07-12T20:13:55.681Z,48.33
2018-07-12T20:16:26.110Z,46.53
2018-07-12T20:18:55.411Z,40.90
2018-07-12T20:21:24.803Z,46.67
2018-07-12T20:23:54.153Z,49.60
2018-07-12T20:26:24.716Z,46.37
2018-07-12T20:28:53.898Z,46.73
2018-07-12T20:31:23.281Z,53.03
2018-07-12T20:33:52.234Z,49.63
2018-07-12T20:36:21.529Z,51.70
2018-07-12T20:38:50.812Z,45.23
2018-07-12T20:41:20.400Z,47.23
2018-07-12T20:43:49.683Z,43.80
2018-07-12T20:46:19.088Z,51.27
2018-07-12T20:48:48.428Z,50.33
2018-07-12T20:51:17.754Z,52.93
2018-07-12T20:53:47.066Z,51.90
2018-07-12T20:56:16.446Z,50.70
2018-07-12T20:58:45.857Z,44.97
2018-07-12T21:01:15.252Z,49.73
2018-07-12T21:03:44.568Z,51.97
2018-07-12T21:06:13.869Z,46.97
2018-07-12T21:08:43.173Z,55.93
2018-07-12T21:11:12.545Z,48.67
2018-07-12T21:13:42.682Z,49.67
2018-07-12T21:16:21.636Z,46.63
2018-07-12T21:18:51.230Z,45.07
2018-07-12T21:21:20.838Z,48.57
2018-07-12T21:23:50.177Z,45.63
2018-07-12T21:26:19.472Z,46.57
2018-07-12T21:28:48.949Z,40.87
2018-07-12T21:31:18.442Z,40.27
2018-07-12T21:33:47.752Z,41.10
2018-07-12T21:36:17.118Z,35.83
2018-07-12T21:38:46.406Z,40.93
2018-07-12T21:41:15.418Z,38.87
2018-07-12T21:43:44.638Z,37.57
2018-07-12T21:46:14.040Z,39.30
2018-07-12T21:48:43.402Z,37.30
2018-07-12T21:51:12.360Z,37.60
2018-07-12T21:53:41.557Z,36.67
2018-07-12T21:56:10.510Z,39.00
2018-07-12T21:58:39.728Z,42.57
2018-07-12T22:01:09.191Z,42.40
2018-07-12T22:03:38.514Z,44.30
2018-07-12T22:06:07.838Z,44.53
2018-07-12T22:08:37.112Z,43.03
2018-07-12T22:11:06.968Z,39.57
2018-07-12T22:13:37.397Z,46.77
2018-07-12T22:16:06.798Z,49.17
2018-07-12T22:18:36.181Z,43.63
2018-07-12T22:21:05.558Z,49.60
2018-07-12T22:23:34.795Z,46.90
2018-07-12T22:26:04.078Z,52.00
2018-07-12T22:28:33.408Z,46.10
2018-07-12T22:31:02.736Z,46.77
2018-07-12T22:33:32.025Z,47.60
2018-07-12T22:36:01.331Z,47.53
2018-07-12T22:38:30.664Z,49.70
2018-07-12T22:41:00.074Z,46.50
2018-07-12T22:43:29.373Z,46.73
2018-07-12T22:45:58.664Z,48.17
2018-07-12T22:48:28.206Z,50.13
2018-07-12T22:50:58.163Z,44.93
2018-07-12T22:53:27.141Z,40.27
2018-07-12T22:55:56.274Z,45.40
2018-07-12T22:58:25.642Z,44.50
2018-07-12T23:00:54.941Z,48.53
2018-07-12T23:03:24.224Z,49.17
2018-07-12T23:05:53.484Z,45.57
2018-07-12T23:08:22.761Z,50.93
2018-07-12T23:10:52.169Z,47.30
2018-07-12T23:13:21.461Z,45.87
2018-07-12T23:15:50.802Z,47.13
2018-07-12T23:18:20.170Z,47.43
2018-07-12T23:20:49.477Z,52.00
2018-07-12T23:23:18.753Z,47.50
2018-07-12T23:25:48.004Z,43.47
2018-07-12T23:28:17.265Z,44.83
2018-07-12T23:30:46.604Z,45.43
2018-07-12T23:33:15.908Z,47.73
2018-07-12T23:35:45.272Z,46.40
2018-07-12T23:38:14.576Z,43.07
2018-07-12T23:40:43.974Z,52.37
2018-07-12T23:43:13.246Z,58.10
2018-07-12T23:45:42.550Z,55.33
2018-07-12T23:48:11.850Z,52.10
2018-07-12T23:50:40.879Z,54.13
2018-07-12T23:53:10.136Z,45.43
2018-07-12T23:55:39.472Z,50.97
2018-07-12T23:58:08.780Z,56.23
